West Palm Beach, FL (33406)

10:34 PM EDT on September 22, 2014 (GMT -0400)
LCS Police HQ / EOC | Change Station
CLOSE
Current Station
Personal Weather Station
Location: Lake Clarke Shores, FL
Elevation: 30 ft
Nearby Weather Stations

Elev 30 ft 26.65 °N, 80.08 °W | Updated 9 seconds ago

Thunderstorm
Thunderstorm
76.2 °F
Feels Like 76 °F
N
0.0
Wind Variable Wind from NW
Gusts 11.2 mph

Today
High -- | Low -- °F
--% Chance of Precip.
Yesterday
High -- | Low -- °F
Precip. -- in
7:08 AM 7:16 PM
Waning Crescent, 1% visible
Pressure 30.00 in
Visibility 10.0 miles
Clouds Few 500 ft
Scattered Clouds 4100 ft
Mostly Cloudy 24000 ft
Heat Index 76 °F
Dew Point 74 °F
Humidity 91%
Rainfall 0.00 in
Snow Depth Not available.
UV 0 out of 12
Pollen 2.50 out of 12
Ozone Good
PM2.5 Good
Flu Activity Not available.
METAR KPBI 230153Z 34004KT 10SM TS FEW005 SCT041CB BKN240 24/23 A3000 RMK AO2 TSB23 SLP159 FRQ LTGICCC SE TS SE MOV NE CB DSNT NE-SE T02440233 PNO

More Conditions Fewer Conditions

Pressure 30.00 in
Visibility 10.0 miles
Clouds Few 500 ft
Scattered Clouds 4100 ft
Mostly Cloudy 24000 ft
Heat Index 76 °F
Dew Point 74 °F
Humidity 91%
Rainfall 0.00 in
Snow Depth Not available.
UV 0 out of 12
Pollen 2.50 out of 12
Ozone Good
PM2.5 Good
Flu Activity Not available.
METAR KPBI 230153Z 34004KT 10SM TS FEW005 SCT041CB BKN240 24/23 A3000 RMK AO2 TSB23 SLP159 FRQ LTGICCC SE TS SE MOV NE CB DSNT NE-SE T02440233 PNO

More Conditions Fewer Conditions

10-Day Weather Forecast

Almanac

Astronomy

Sep. 22, 2014 Rise Set
Actual Time 7:08 AM EDT 7:16 PM EDT
Civil Twilight 6:45 AM EDT 7:39 PM EDT
Nautical Twilight 6:18 AM EDT 8:06 PM EDT
Astronomical Twilight 5:51 AM EDT 8:33 PM EDT
Moon 5:42 AM EDT (9/22) 6:19 PM EDT (9/22)
Length of Visible Light 12h 54m
Length of Day
12h 07m
Tomorrow will be 1m 34s shorter.
Waning Crescent, 1% of the Moon is Illuminated
Today
Waning Crescent
Sep 24
New
Oct 1
First Quarter
Oct 8
Full
Oct 15
Last Quarter

Today's Extremes

State Highs State Lows

Community

WunderPhotos

Upload Photos

1,755,587 photos uploaded!

Nearby

Air Quality

  Air Quality AQ Index Pollutant
Yesterday Good
PM2.5
Yesterday Good
OZONE
Current Good
PM2.5
Current Good
OZONE
Monday Good
OZONE
Monday Good
PM2.5
Tuesday Good
OZONE
Tuesday Good
PM2.5

Snow Depth

Station Depth Elevation
No new snow has been reported.

Earthquake Activity

City Distance Mag. Time & Date
No recent earthquake activity has been reported nearby.
Minimum magnitude displayed is 2.5.

Coastal Water Temperatures

Place Temperature
Lake Worth, FL 84.9 °F
Virginia Key, FL 84.9 °F

Nearby Weather Stations